Time;durP1;ratioP1;P1;durP2;ratioP2;P2;SDS_P1;SDS_P2;PMS_P1;PMS_P2;Temp;Humidity;BMP_temperature;BMP_pressure;BME280_temperature;BME280_humidity;BME280_pressure;Samples;Min_cycle;Max_cycle;Signal;HPM_P1;HPM_P2
2023/12/07 00:01:41;;;;;;;13.80;8.30;;;;;-0.70;94135.00;;;;7389303;19;20149;-77
2023/12/07 00:04:15;;;;;;;15.57;8.80;;;;;-0.70;94137.00;;;;7388683;19;20156;-75
2023/12/07 00:06:43;;;;;;;14.37;8.30;;;;;-0.80;94144.00;;;;7383938;19;20152;-75
2023/12/07 00:09:24;;;;;;;15.73;8.73;;;;;-0.70;94135.00;;;;7388761;19;20597;-75
2023/12/07 00:12:00;;;;;;;15.10;8.37;;;;;-0.70;94139.00;;;;7386642;19;20161;-75
2023/12/07 00:14:37;;;;;;;17.47;8.53;;;;;-0.70;94148.00;;;;7387327;19;20136;-75
2023/12/07 00:17:04;;;;;;;12.50;8.37;;;;;-0.70;94131.00;;;;7388384;19;20625;-75
2023/12/07 00:19:39;;;;;;;16.73;8.27;;;;;-0.50;94135.00;;;;7388525;19;20470;-74
2023/12/07 00:22:06;;;;;;;16.20;8.37;;;;;-0.50;94138.00;;;;7387085;19;20128;-74
2023/12/07 00:24:52;;;;;;;16.57;8.37;;;;;-0.50;94141.00;;;;7386678;19;20631;-71
2023/12/07 00:27:20;;;;;;;12.63;8.07;;;;;-0.50;94147.00;;;;7387742;19;20132;-74
2023/12/07 00:29:54;;;;;;;13.20;7.90;;;;;-0.40;94140.00;;;;7387978;19;21480;-72
2023/12/07 00:32:21;;;;;;;13.87;7.67;;;;;-0.50;94138.00;;;;7387946;19;20133;-73
2023/12/07 00:34:56;;;;;;;12.83;8.07;;;;;-0.50;94139.00;;;;7388543;19;20132;-71
2023/12/07 00:37:27;;;;;;;10.47;7.23;;;;;-0.60;94147.00;;;;7387799;19;20548;-74
2023/12/07 00:40:01;;;;;;;12.63;7.37;;;;;-0.60;94148.00;;;;7388496;19;20632;-72
2023/12/07 00:42:30;;;;;;;10.97;7.53;;;;;-0.60;94139.00;;;;7386960;19;23143;-73
2023/12/07 00:45:04;;;;;;;16.07;8.07;;;;;-0.70;94146.00;;;;7388227;19;20740;-72
2023/12/07 00:47:42;;;;;;;17.33;7.83;;;;;-0.80;94144.00;;;;7382057;19;20505;-73
2023/12/07 00:50:14;;;;;;;14.37;7.87;;;;;-0.90;94146.00;;;;7385461;19;20167;-72
2023/12/07 00:52:48;;;;;;;14.97;7.80;;;;;-0.90;94152.00;;;;7385355;19;20192;-73
2023/12/07 00:55:15;;;;;;;14.93;7.57;;;;;-0.90;94151.00;;;;7387056;19;20157;-75
2023/12/07 00:58:00;;;;;;;13.60;6.87;;;;;-0.90;94159.00;;;;7387656;19;20136;-74
2023/12/07 01:00:27;;;;;;;11.73;7.13;;;;;-0.90;94162.00;;;;7385743;19;20131;-72
2023/12/07 01:03:02;;;;;;;12.40;6.87;;;;;-0.90;94163.00;;;;7386764;19;20133;-72
2023/12/07 01:05:36;;;;;;;10.97;6.73;;;;;-0.90;94160.00;;;;7386735;19;20484;-72
2023/12/07 01:08:17;;;;;;;10.63;7.03;;;;;-0.90;94167.00;;;;7386455;19;20128;-72
2023/12/07 01:10:56;;;;;;;10.67;6.00;;;;;-0.90;94165.00;;;;7385433;19;20204;-73
2023/12/07 01:13:30;;;;;;;11.13;7.00;;;;;-0.90;94161.00;;;;7386242;19;20624;-74
2023/12/07 01:15:58;;;;;;;12.23;6.60;;;;;-0.90;94160.00;;;;7385925;19;20153;-72
2023/12/07 01:18:35;;;;;;;9.80;6.10;;;;;-0.90;94162.00;;;;7386125;19;20133;-73
2023/12/07 01:21:05;;;;;;;11.00;6.67;;;;;-1.00;94165.00;;;;7384643;19;20156;-74
2023/12/07 01:23:48;;;;;;;11.20;7.20;;;;;-1.00;94164.00;;;;7384861;19;20236;-75
2023/12/07 01:26:27;;;;;;;11.00;6.67;;;;;-1.00;94171.00;;;;7385723;19;20141;-76
2023/12/07 01:29:04;;;;;;;15.23;6.27;;;;;-1.00;94176.00;;;;7386117;19;20137;-76
2023/12/07 01:31:31;;;;;;;12.87;6.63;;;;;-1.00;94182.00;;;;7387167;19;20882;-78
2023/12/07 01:34:05;;;;;;;11.53;6.50;;;;;-1.00;94178.00;;;;7386256;19;20150;-77
2023/12/07 01:36:42;;;;;;;11.50;6.70;;;;;-1.00;94184.00;;;;7385995;19;20129;-76
2023/12/07 01:39:12;;;;;;;11.30;6.33;;;;;-1.00;94184.00;;;;7385567;19;20129;-75
2023/12/07 01:41:51;;;;;;;12.47;6.40;;;;;-1.00;94177.00;;;;7385612;19;20128;-76
2023/12/07 01:44:27;;;;;;;10.27;5.90;;;;;-1.00;94179.00;;;;7385945;19;20149;-76
2023/12/07 01:47:04;;;;;;;9.60;6.70;;;;;-1.00;94196.00;;;;7385700;19;20129;-76
2023/12/07 01:49:43;;;;;;;9.63;6.43;;;;;-1.00;94187.00;;;;7384385;19;20648;-74
2023/12/07 01:52:11;;;;;;;12.27;6.90;;;;;-1.00;94189.00;;;;7385755;19;20150;-76
2023/12/07 01:54:45;;;;;;;13.00;7.43;;;;;-1.00;94197.00;;;;7386541;19;20262;-75
2023/12/07 01:57:20;;;;;;;10.47;6.77;;;;;-1.00;94194.00;;;;7380039;19;20139;-77
2023/12/07 01:59:54;;;;;;;13.40;6.40;;;;;-0.90;94194.00;;;;7384263;19;20139;-77
2023/12/07 02:02:28;;;;;;;15.20;6.60;;;;;-1.00;94187.00;;;;7391716;19;20133;-77
2023/12/07 02:05:03;;;;;;;11.37;6.83;;;;;-0.90;94191.00;;;;7392354;19;20148;-75
2023/12/07 02:07:37;;;;;;;9.40;6.37;;;;;-0.90;94171.00;;;;7392249;19;20137;-78
2023/12/07 02:10:13;;;;;;;13.13;6.20;;;;;-1.10;94173.00;;;;7391706;19;20153;-77
2023/12/07 02:12:51;;;;;;;10.63;6.43;;;;;-1.20;94176.00;;;;7390800;19;20159;-76
2023/12/07 02:15:19;;;;;;;11.50;6.67;;;;;-1.20;94177.00;;;;7392065;19;20133;-78
2023/12/07 02:18:10;;;;;;;10.20;6.30;;;;;-1.40;94171.00;;;;7391667;19;20605;-74
2023/12/07 02:20:55;;;;;;;12.17;6.53;;;;;-1.50;94179.00;;;;7390861;19;20627;-75
2023/12/07 02:23:32;;;;;;;13.80;6.23;;;;;-1.70;94169.00;;;;7391475;19;20153;-77
2023/12/07 02:27:02;;;;;;;11.67;7.10;;;;;-1.70;94180.00;;;;7390392;19;20152;-78
2023/12/07 02:29:39;;;;;;;11.13;6.87;;;;;-1.60;94172.00;;;;7391885;19;20132;-78
2023/12/07 02:32:07;;;;;;;13.07;6.20;;;;;-1.60;94168.00;;;;7391460;19;20125;-77
2023/12/07 02:34:40;;;;;;;9.37;5.90;;;;;-1.80;94166.00;;;;7392235;19;20133;-76
2023/12/07 02:37:13;;;;;;;14.37;6.67;;;;;-1.80;94165.00;;;;7390568;19;20163;-75
2023/12/07 02:39:49;;;;;;;12.10;7.20;;;;;-1.80;94168.00;;;;7390297;19;20144;-75
2023/12/07 02:42:27;;;;;;;14.37;6.77;;;;;-1.70;94163.00;;;;7390047;19;20153;-75
2023/12/07 02:45:06;;;;;;;13.83;6.73;;;;;-1.70;94161.00;;;;7390125;19;20148;-76
2023/12/07 02:47:36;;;;;;;12.97;6.67;;;;;-1.80;94171.00;;;;7392199;19;20129;-75
2023/12/07 02:50:06;;;;;;;12.60;7.23;;;;;-1.80;94172.00;;;;7390320;19;20173;-76
2023/12/07 02:52:40;;;;;;;13.90;6.53;;;;;-2.00;94182.00;;;;7389786;19;20144;-75
2023/12/07 02:55:09;;;;;;;11.87;6.90;;;;;-2.00;94183.00;;;;7390305;19;20139;-75
2023/12/07 02:57:42;;;;;;;12.87;7.10;;;;;-2.00;94178.00;;;;7390130;19;20217;-75
2023/12/07 03:00:21;;;;;;;12.07;6.70;;;;;-2.00;94180.00;;;;7390508;19;20226;-75
2023/12/07 03:02:56;;;;;;;8.93;6.20;;;;;-2.10;94185.00;;;;7390491;19;20146;-74
2023/12/07 03:05:30;;;;;;;10.40;5.77;;;;;-2.20;94189.00;;;;7392421;19;20136;-77
2023/12/07 03:08:09;;;;;;;11.33;6.83;;;;;-2.30;94179.00;;;;7392552;19;20610;-77
2023/12/07 03:10:39;;;;;;;11.20;6.60;;;;;-2.20;94178.00;;;;7391100;19;20144;-75
2023/12/07 03:13:15;;;;;;;15.00;7.30;;;;;-2.20;94172.00;;;;7387644;19;20185;-74
2023/12/07 03:15:43;;;;;;;11.50;6.77;;;;;-2.30;94180.00;;;;7387392;19;20153;-75
2023/12/07 03:18:17;;;;;;;10.37;6.90;;;;;-2.30;94177.00;;;;7391848;19;20533;-76
2023/12/07 03:20:52;;;;;;;14.27;6.87;;;;;-2.10;94172.00;;;;7389857;19;20584;-76
2023/12/07 03:23:26;;;;;;;15.97;6.50;;;;;-2.00;94185.00;;;;7390391;19;20204;-75
2023/12/07 03:26:09;;;;;;;21.07;7.60;;;;;-2.00;94181.00;;;;7391117;19;20132;-76
2023/12/07 03:28:37;;;;;;;14.13;7.73;;;;;-2.00;94183.00;;;;7391367;19;20268;-76
2023/12/07 03:31:11;;;;;;;11.97;7.20;;;;;-2.00;94188.00;;;;7391809;19;20494;-77
2023/12/07 03:33:45;;;;;;;11.57;7.17;;;;;-2.10;94185.00;;;;7390685;19;20128;-77
2023/12/07 03:36:19;;;;;;;14.57;7.17;;;;;-2.10;94185.00;;;;7390017;19;20137;-75
2023/12/07 03:38:53;;;;;;;15.27;7.97;;;;;-2.10;94179.00;;;;7388669;19;20144;-76
2023/12/07 03:41:27;;;;;;;18.47;7.13;;;;;-2.20;94188.00;;;;7388506;19;20170;-75
2023/12/07 03:44:02;;;;;;;14.03;7.20;;;;;-2.30;94183.00;;;;7390746;19;20133;-74
2023/12/07 03:46:39;;;;;;;11.37;7.07;;;;;-2.40;94184.00;;;;7388290;19;20144;-77
2023/12/07 03:49:07;;;;;;;12.57;6.47;;;;;-2.50;94183.00;;;;7389791;19;20221;-77
2023/12/07 03:51:36;;;;;;;15.20;7.73;;;;;-2.30;94176.00;;;;7388312;19;20137;-76
2023/12/07 03:54:10;;;;;;;14.30;7.20;;;;;-2.40;94184.00;;;;7388206;19;20148;-76
2023/12/07 03:56:44;;;;;;;13.43;6.40;;;;;-2.50;94185.00;;;;7387768;19;20149;-77
2023/12/07 03:59:11;;;;;;;10.10;6.07;;;;;-2.30;94184.00;;;;7390239;19;20125;-75
2023/12/07 04:01:46;;;;;;;14.50;6.83;;;;;-2.30;94191.00;;;;7388979;19;20558;-76
2023/12/07 04:04:25;;;;;;;11.33;7.03;;;;;-2.50;94188.00;;;;7389805;19;20125;-75
2023/12/07 04:06:59;;;;;;;12.17;6.17;;;;;-2.60;94186.00;;;;7388409;19;20128;-75
2023/12/07 04:09:33;;;;;;;16.90;7.53;;;;;-2.60;94197.00;;;;7387316;19;20129;-75
2023/12/07 04:12:06;;;;;;;12.50;6.53;;;;;-2.70;94187.00;;;;7384186;19;20129;-75
2023/12/07 04:14:34;;;;;;;16.60;6.80;;;;;-2.80;94188.00;;;;7389200;19;20141;-77
2023/12/07 04:17:09;;;;;;;11.93;6.90;;;;;-2.80;94183.00;;;;7388630;19;20137;-75
2023/12/07 04:19:44;;;;;;;13.27;6.50;;;;;-2.80;94185.00;;;;7389661;19;20149;-76
2023/12/07 04:22:17;;;;;;;12.33;6.67;;;;;-2.90;94187.00;;;;7389480;19;20136;-74
2023/12/07 04:24:57;;;;;;;10.53;5.80;;;;;-2.90;94185.00;;;;7384771;19;20181;-75
2023/12/07 04:27:25;;;;;;;13.93;6.60;;;;;-2.80;94198.00;;;;7389462;19;20136;-73
2023/12/07 04:29:59;;;;;;;12.07;5.93;;;;;-2.80;94199.00;;;;7389071;19;20715;-77
2023/12/07 04:32:34;;;;;;;12.47;7.07;;;;;-2.80;94193.00;;;;7387478;19;20156;-75
2023/12/07 04:35:09;;;;;;;10.23;6.27;;;;;-2.90;94190.00;;;;7388139;19;20211;-76
2023/12/07 04:37:39;;;;;;;12.57;6.03;;;;;-3.00;94183.00;;;;7387040;19;20137;-74
2023/12/07 04:40:15;;;;;;;10.50;6.20;;;;;-3.00;94193.00;;;;7386988;19;20152;-75
2023/12/07 04:42:43;;;;;;;15.37;6.90;;;;;-3.00;94189.00;;;;7389129;19;20133;-76
2023/12/07 04:45:17;;;;;;;14.13;6.57;;;;;-2.90;94196.00;;;;7387432;19;20148;-74
2023/12/07 04:47:51;;;;;;;11.87;6.40;;;;;-2.80;94190.00;;;;7387862;19;20141;-75
2023/12/07 04:50:25;;;;;;;16.07;7.00;;;;;-2.80;94181.00;;;;7387116;19;20137;-75
2023/12/07 04:52:59;;;;;;;12.87;6.33;;;;;-2.90;94194.00;;;;7387183;19;20149;-77
2023/12/07 04:55:26;;;;;;;15.03;6.37;;;;;-2.60;94193.00;;;;7387963;19;20129;-72
2023/12/07 04:58:02;;;;;;;11.60;6.77;;;;;-2.80;94197.00;;;;7387486;19;20625;-71
2023/12/07 05:00:42;;;;;;;12.77;6.33;;;;;-2.80;94194.00;;;;7387252;19;20519;-72
2023/12/07 05:03:17;;;;;;;14.10;6.23;;;;;-2.70;94189.00;;;;7387792;19;20188;-70
2023/12/07 05:05:53;;;;;;;13.30;6.27;;;;;-2.60;94194.00;;;;7386229;19;20472;-71
2023/12/07 05:08:25;;;;;;;12.77;6.53;;;;;-2.80;94194.00;;;;7386903;19;20141;-72
2023/12/07 05:11:00;;;;;;;11.07;6.10;;;;;-2.90;94196.00;;;;7387040;19;20150;-72
2023/12/07 05:13:28;;;;;;;9.90;5.80;;;;;-2.90;94205.00;;;;7386873;19;20180;-71
2023/12/07 05:16:03;;;;;;;14.13;6.53;;;;;-2.90;94205.00;;;;7382865;19;20156;-71
2023/12/07 05:18:31;;;;;;;13.67;5.87;;;;;-2.80;94196.00;;;;7387614;19;20161;-73
2023/12/07 05:21:02;;;;;;;9.97;5.80;;;;;-2.90;94198.00;;;;7384783;19;20152;-71
2023/12/07 05:23:43;;;;;;;13.20;6.33;;;;;-2.90;94199.00;;;;7383187;19;20217;-74
2023/12/07 05:26:17;;;;;;;11.57;5.53;;;;;-3.00;94193.00;;;;7384365;19;20692;-72
2023/12/07 05:28:52;;;;;;;12.90;5.90;;;;;-3.10;94181.00;;;;7383997;19;20125;-72
2023/12/07 05:31:22;;;;;;;11.63;4.93;;;;;-3.40;94186.00;;;;7382923;19;20173;-72
2023/12/07 05:34:01;;;;;;;12.33;6.30;;;;;-3.40;94192.00;;;;7384689;19;20593;-71
2023/12/07 05:36:30;;;;;;;13.73;6.30;;;;;-3.30;94189.00;;;;7389429;19;20196;-71
2023/12/07 05:39:00;;;;;;;9.37;5.63;;;;;-3.20;94188.00;;;;7391145;19;20128;-71
2023/12/07 05:41:45;;;;;;;14.97;6.23;;;;;-3.40;94190.00;;;;7389232;19;20144;-74
2023/12/07 05:44:12;;;;;;;11.67;6.33;;;;;-3.70;94189.00;;;;7389853;19;20152;-71
2023/12/07 05:46:46;;;;;;;10.03;5.33;;;;;-3.80;94198.00;;;;7390619;19;20128;-72
2023/12/07 05:49:14;;;;;;;11.50;5.70;;;;;-3.80;94196.00;;;;7389022;19;20228;-72
2023/12/07 05:51:45;;;;;;;9.93;5.33;;;;;-3.70;94190.00;;;;7390984;19;20151;-71
2023/12/07 05:54:20;;;;;;;11.07;5.03;;;;;-3.70;94187.00;;;;7388560;19;20159;-71
2023/12/07 05:56:59;;;;;;;11.10;5.70;;;;;-3.60;94186.00;;;;7389698;19;20155;-74
2023/12/07 05:59:27;;;;;;;10.47;5.33;;;;;-3.80;94193.00;;;;7388117;19;20148;-72
2023/12/07 06:02:04;;;;;;;14.40;5.57;;;;;-4.00;94180.00;;;;7389291;19;20155;-73
2023/12/07 06:04:33;;;;;;;14.60;5.57;;;;;-3.90;94189.00;;;;7390753;19;20133;-72
2023/12/07 06:07:04;;;;;;;14.27;6.30;;;;;-3.90;94182.00;;;;7391290;19;20124;-76
2023/12/07 06:09:37;;;;;;;9.83;5.17;;;;;-4.10;94193.00;;;;7392576;19;20135;-75
2023/12/07 06:12:05;;;;;;;13.40;6.13;;;;;-4.20;94195.00;;;;7387295;19;20204;-74
2023/12/07 06:14:42;;;;;;;11.03;5.40;;;;;-4.20;94189.00;;;;7392443;19;20143;-75
2023/12/07 06:17:16;;;;;;;8.60;5.00;;;;;-4.10;94192.00;;;;7390936;19;20152;-75
2023/12/07 06:19:50;;;;;;;7.67;4.73;;;;;-4.00;94197.00;;;;7392617;19;20527;-74
2023/12/07 06:22:18;;;;;;;15.37;5.70;;;;;-4.00;94203.00;;;;7391400;19;20128;-77
2023/12/07 06:25:00;;;;;;;14.20;5.80;;;;;-4.00;94189.00;;;;7389486;19;20246;-75
2023/12/07 06:27:36;;;;;;;13.63;5.43;;;;;-4.10;94194.00;;;;7390625;19;20134;-75
2023/12/07 06:30:10;;;;;;;10.07;4.90;;;;;-4.10;94198.00;;;;7389180;19;20136;-75
2023/12/07 06:32:38;;;;;;;9.30;4.67;;;;;-4.10;94197.00;;;;7389236;19;20149;-74
2023/12/07 06:35:13;;;;;;;8.57;5.17;;;;;-3.90;94194.00;;;;7388725;19;20132;-75
2023/12/07 06:37:46;;;;;;;10.20;5.53;;;;;-4.00;94190.00;;;;7389697;19;20173;-75
2023/12/07 06:40:20;;;;;;;8.97;4.83;;;;;-3.90;94192.00;;;;7389287;19;20156;-76
2023/12/07 06:42:54;;;;;;;10.33;5.10;;;;;-3.80;94197.00;;;;7389526;19;20134;-76
2023/12/07 06:45:37;;;;;;;7.23;4.77;;;;;-3.80;94195.00;;;;7392885;19;20135;-76
2023/12/07 06:48:11;;;;;;;9.47;4.57;;;;;-3.90;94206.00;;;;7390394;19;20152;-76
2023/12/07 06:50:48;;;;;;;10.17;5.83;;;;;-3.80;94202.00;;;;7393198;19;20640;-76
2023/12/07 06:53:25;;;;;;;12.17;5.83;;;;;-3.70;94209.00;;;;7393012;19;20146;-76
2023/12/07 06:55:53;;;;;;;9.73;6.07;;;;;-3.70;94205.00;;;;7390561;19;20225;-75
2023/12/07 06:58:27;;;;;;;10.03;5.80;;;;;-3.60;94221.00;;;;7393173;19;20152;-75
2023/12/07 07:01:03;;;;;;;9.80;5.73;;;;;-3.50;94213.00;;;;7389430;19;20154;-75
2023/12/07 07:03:38;;;;;;;10.67;6.50;;;;;-3.20;94214.00;;;;7391635;19;20150;-76
2023/12/07 07:06:12;;;;;;;11.20;6.50;;;;;-3.20;94201.00;;;;7392002;19;20149;-76
2023/12/07 07:08:40;;;;;;;13.03;6.97;;;;;-3.20;94202.00;;;;7392026;19;20164;-76
2023/12/07 07:11:20;;;;;;;13.43;6.93;;;;;-3.10;94202.00;;;;7395915;19;20144;-76
2023/12/07 07:13:59;;;;;;;12.47;7.20;;;;;-3.00;94203.00;;;;7393611;19;20184;-76
2023/12/07 07:16:38;;;;;;;11.97;6.40;;;;;-3.00;94195.00;;;;7392492;19;20161;-75
2023/12/07 07:19:10;;;;;;;11.63;6.07;;;;;-3.00;94188.00;;;;7392529;19;20137;-75
2023/12/07 07:21:44;;;;;;;11.53;6.33;;;;;-2.90;94191.00;;;;7392059;19;20481;-74
2023/12/07 07:24:13;;;;;;;10.40;5.90;;;;;-2.70;94192.00;;;;7392177;19;20224;-75
2023/12/07 07:27:03;;;;;;;11.97;6.43;;;;;-2.50;94192.00;;;;7392979;19;20629;-75
2023/12/07 07:29:32;;;;;;;14.77;6.27;;;;;-2.60;94195.00;;;;7389855;19;20914;-75
2023/12/07 07:32:12;;;;;;;11.10;6.07;;;;;-2.50;94191.00;;;;7391525;19;20132;-75
2023/12/07 07:34:43;;;;;;;10.23;6.00;;;;;-2.40;94193.00;;;;7390708;19;20597;-74
2023/12/07 07:37:18;;;;;;;10.87;6.40;;;;;-2.20;94191.00;;;;7390691;19;20216;-74
2023/12/07 07:39:47;;;;;;;13.10;6.37;;;;;-2.40;94191.00;;;;7391849;19;20136;-75
2023/12/07 07:42:28;;;;;;;10.67;5.83;;;;;-2.40;94196.00;;;;7390638;19;20256;-74
2023/12/07 07:44:56;;;;;;;13.03;6.63;;;;;-2.30;94197.00;;;;7390191;19;20131;-73
2023/12/07 07:47:30;;;;;;;9.00;5.30;;;;;-2.30;94190.00;;;;7386061;19;20147;-75
2023/12/07 07:50:11;;;;;;;10.00;5.50;;;;;-2.20;94195.00;;;;7388136;19;20150;-77
2023/12/07 07:52:45;;;;;;;13.13;5.50;;;;;-2.30;94205.00;;;;7386863;19;20642;-76
2023/12/07 07:55:18;;;;;;;7.57;5.00;;;;;-2.30;94202.00;;;;7384058;19;20133;-73
2023/12/07 07:57:53;;;;;;;10.53;5.33;;;;;-2.20;94196.00;;;;7386847;19;20803;-73
2023/12/07 08:00:28;;;;;;;8.27;5.00;;;;;-2.10;94211.00;;;;7387429;19;20617;-70
2023/12/07 08:03:24;;;;;;;9.27;5.20;;;;;-2.00;94208.00;;;;7388122;19;20141;-75
2023/12/07 08:05:59;;;;;;;9.20;5.17;;;;;-1.90;94204.00;;;;7387976;19;20156;-72
2023/12/07 08:08:32;;;;;;;9.33;5.53;;;;;-1.80;94212.00;;;;7388389;19;20205;-72
2023/12/07 08:11:05;;;;;;;8.50;4.63;;;;;-1.70;94206.00;;;;7387206;19;20139;-74
2023/12/07 08:13:32;;;;;;;8.43;4.70;;;;;-1.60;94213.00;;;;7388856;19;20220;-73
2023/12/07 08:16:10;;;;;;;8.87;4.33;;;;;-1.60;94211.00;;;;7387767;19;20499;-74
2023/12/07 08:18:44;;;;;;;8.37;4.97;;;;;-1.50;94214.00;;;;7387502;19;20219;-76
2023/12/07 08:21:25;;;;;;;10.73;5.27;;;;;-1.30;94214.00;;;;7387447;19;20133;-76
2023/12/07 08:24:14;;;;;;;9.67;5.07;;;;;-1.20;94208.00;;;;7384765;19;20548;-75
2023/12/07 08:26:51;;;;;;;8.17;5.13;;;;;-0.80;94216.00;;;;7388573;19;20633;-74
2023/12/07 08:29:25;;;;;;;12.33;4.97;;;;;-0.60;94207.00;;;;7388367;19;20617;-74
2023/12/07 08:31:57;;;;;;;7.23;5.00;;;;;-0.60;94188.00;;;;7386725;19;20157;-74
2023/12/07 08:34:31;;;;;;;8.07;5.03;;;;;-0.30;94180.00;;;;7386121;19;20129;-72
2023/12/07 08:36:58;;;;;;;8.77;5.33;;;;;0.20;94179.00;;;;7387335;19;20487;-75
2023/12/07 08:39:27;;;;;;;8.77;5.10;;;;;0.40;94183.00;;;;7386729;19;20137;-75
2023/12/07 08:42:01;;;;;;;9.00;5.73;;;;;0.70;94166.00;;;;7384247;19;20142;-72
2023/12/07 08:44:28;;;;;;;9.40;6.47;;;;;1.10;94165.00;;;;7385573;19;20192;-75
2023/12/07 08:47:03;;;;;;;6.23;4.80;;;;;1.60;94179.00;;;;7385023;19;20132;-74
2023/12/07 08:49:36;;;;;;;6.70;4.70;;;;;1.50;94192.00;;;;7384053;19;20231;-76
2023/12/07 08:52:10;;;;;;;5.67;4.13;;;;;1.50;94181.00;;;;7386832;19;20480;-76
2023/12/07 08:55:00;;;;;;;4.67;3.60;;;;;2.30;94193.00;;;;7381895;19;20156;-76
2023/12/07 08:57:34;;;;;;;4.90;3.80;;;;;2.40;94185.00;;;;7387149;19;20128;-75
2023/12/07 09:00:01;;;;;;;6.03;3.50;;;;;2.80;94173.00;;;;7385122;19;20145;-77
2023/12/07 09:02:37;;;;;;;5.13;3.10;;;;;3.10;94168.00;;;;7384692;19;20135;-77
2023/12/07 09:05:15;;;;;;;3.80;3.40;;;;;3.40;94160.00;;;;7385088;19;20477;-76
2023/12/07 09:07:49;;;;;;;4.27;3.20;;;;;3.30;94163.00;;;;7382424;19;20156;-74
2023/12/07 09:10:17;;;;;;;5.43;3.03;;;;;3.50;94167.00;;;;7382166;19;20125;-75
2023/12/07 09:12:51;;;;;;;5.33;3.30;;;;;3.90;94162.00;;;;7383566;19;20157;-75
2023/12/07 09:15:18;;;;;;;5.47;3.63;;;;;4.20;94158.00;;;;7382633;19;20465;-74
2023/12/07 09:17:51;;;;;;;6.70;4.37;;;;;3.60;94165.00;;;;7384200;19;20597;-74
2023/12/07 09:20:24;;;;;;;5.17;4.00;;;;;3.90;94155.00;;;;7383337;19;20136;-75
2023/12/07 09:22:57;;;;;;;5.60;3.67;;;;;3.70;94161.00;;;;7384388;19;20599;-73
2023/12/07 09:25:45;;;;;;;4.73;3.87;;;;;3.80;94165.00;;;;7382312;19;20172;-75
2023/12/07 09:28:20;;;;;;;5.67;3.60;;;;;4.30;94151.00;;;;7382695;19;20476;-74
2023/12/07 09:30:54;;;;;;;5.40;3.40;;;;;3.50;94150.00;;;;7383025;19;20125;-74
2023/12/07 09:33:23;;;;;;;4.97;3.47;;;;;3.50;94154.00;;;;7382616;19;20196;-73
2023/12/07 09:35:57;;;;;;;4.80;3.47;;;;;3.40;94158.00;;;;7384221;19;20124;-73
2023/12/07 09:38:25;;;;;;;4.93;2.90;;;;;3.00;94159.00;;;;7383278;19;20465;-75
2023/12/07 09:40:59;;;;;;;4.23;3.33;;;;;2.80;94148.00;;;;7383869;19;20619;-74
2023/12/07 09:43:27;;;;;;;4.83;3.03;;;;;2.90;94157.00;;;;7384284;19;20173;-75
2023/12/07 09:46:01;;;;;;;4.17;3.20;;;;;3.10;94143.00;;;;7383806;19;20153;-72
2023/12/07 09:48:29;;;;;;;5.10;3.07;;;;;3.10;94141.00;;;;7384129;19;20158;-75
2023/12/07 09:51:06;;;;;;;4.70;2.70;;;;;3.50;94137.00;;;;7383881;19;20593;-73
2023/12/07 09:53:45;;;;;;;3.57;2.60;;;;;3.60;94141.00;;;;7381388;19;20196;-74
2023/12/07 09:56:20;;;;;;;4.30;2.77;;;;;3.70;94140.00;;;;7381413;19;20152;-74
2023/12/07 09:58:55;;;;;;;5.53;2.63;;;;;4.50;94128.00;;;;7378511;19;20161;-74
2023/12/07 10:01:31;;;;;;;3.07;2.40;;;;;5.30;94105.00;;;;7381673;19;20568;-75
2023/12/07 10:04:19;;;;;;;3.57;2.50;;;;;5.90;94112.00;;;;7380020;19;20624;-75
2023/12/07 10:06:54;;;;;;;2.83;2.07;;;;;6.30;94125.00;;;;7380038;19;20145;-76
2023/12/07 10:09:28;;;;;;;2.80;2.40;;;;;6.00;94115.00;;;;7380575;19;20151;-75
2023/12/07 10:12:04;;;;;;;3.33;2.40;;;;;5.90;94101.00;;;;7379427;19;20519;-73
2023/12/07 10:14:39;;;;;;;3.47;2.80;;;;;6.20;94093.00;;;;7381112;19;20140;-75
2023/12/07 10:17:06;;;;;;;4.00;2.80;;;;;6.20;94086.00;;;;7380092;19;20145;-74
2023/12/07 10:19:43;;;;;;;4.37;2.60;;;;;6.60;94088.00;;;;7379589;19;20155;-76
2023/12/07 10:22:17;;;;;;;3.30;2.80;;;;;6.30;94090.00;;;;7383847;19;20601;-76
2023/12/07 10:24:45;;;;;;;3.00;2.70;;;;;6.50;94091.00;;;;7386060;19;20513;-76
2023/12/07 10:27:21;;;;;;;4.23;2.53;;;;;6.60;94099.00;;;;7387139;19;20171;-74
2023/12/07 10:29:50;;;;;;;2.90;2.33;;;;;5.90;94097.00;;;;7386132;19;20499;-73
2023/12/07 10:32:26;;;;;;;3.30;2.30;;;;;6.50;94104.00;;;;7386388;19;20663;-76
2023/12/07 10:34:56;;;;;;;3.03;2.43;;;;;6.50;94102.00;;;;7386895;19;20159;-74
2023/12/07 10:37:30;;;;;;;3.07;2.23;;;;;6.80;94102.00;;;;7386641;19;20129;-74
2023/12/07 10:39:58;;;;;;;2.80;2.20;;;;;6.90;94087.00;;;;7388806;19;20145;-74
2023/12/07 10:42:36;;;;;;;3.23;2.40;;;;;6.90;94089.00;;;;7389429;19;20144;-74
2023/12/07 10:45:17;;;;;;;3.47;2.30;;;;;6.80;94071.00;;;;7389752;19;20158;-74
2023/12/07 10:47:53;;;;;;;3.47;2.37;;;;;6.90;94072.00;;;;7386639;19;20468;-75
2023/12/07 10:50:25;;;;;;;4.07;1.97;;;;;6.90;94073.00;;;;7388341;19;20136;-73
2023/12/07 10:53:06;;;;;;;5.30;2.40;;;;;7.10;94063.00;;;;7389374;19;20150;-76
2023/12/07 10:55:55;;;;;;;2.60;2.17;;;;;6.50;94063.00;;;;7387771;19;20157;-76
2023/12/07 10:58:39;;;;;;;3.43;2.40;;;;;6.60;94063.00;;;;7389541;19;20124;-74
2023/12/07 11:01:11;;;;;;;2.73;2.20;;;;;6.60;94059.00;;;;7383599;19;20477;-74
2023/12/07 11:03:45;;;;;;;2.83;2.30;;;;;6.00;94053.00;;;;7386515;19;20155;-76
2023/12/07 11:06:14;;;;;;;4.43;2.43;;;;;6.10;94014.00;;;;7386872;19;20152;-79
2023/12/07 11:08:59;;;;;;;4.07;2.93;;;;;5.70;94039.00;;;;7386630;19;20165;-77
2023/12/07 11:11:59;;;;;;;3.27;2.37;;;;;5.70;94032.00;;;;7386521;19;20129;-78
2023/12/07 11:14:27;;;;;;;3.97;2.30;;;;;6.20;94047.00;;;;7385172;19;20173;-77
2023/12/07 11:17:04;;;;;;;3.53;2.70;;;;;5.90;94038.00;;;;7387614;19;20162;-76
2023/12/07 11:19:32;;;;;;;3.37;2.40;;;;;5.90;94039.00;;;;7388119;19;20212;-76
2023/12/07 11:22:09;;;;;;;3.17;2.47;;;;;6.30;94005.00;;;;7390866;19;20248;-76
2023/12/07 11:25:00;;;;;;;4.50;2.50;;;;;5.80;94043.00;;;;7389526;19;20180;-78
2023/12/07 11:27:37;;;;;;;2.93;2.40;;;;;5.40;94026.00;;;;7390260;19;20140;-77
2023/12/07 11:30:14;;;;;;;4.90;2.50;;;;;6.40;94006.00;;;;7388468;19;20139;-76
2023/12/07 11:32:49;;;;;;;3.10;2.50;;;;;7.50;94000.00;;;;7386869;19;20161;-75
2023/12/07 11:35:23;;;;;;;3.23;2.53;;;;;7.70;93996.00;;;;7388949;19;20174;-76
2023/12/07 11:38:08;;;;;;;4.20;2.83;;;;;7.50;94002.00;;;;7386557;19;20209;-76
2023/12/07 11:40:42;;;;;;;3.57;2.73;;;;;6.90;94009.00;;;;7388216;19;20140;-78
2023/12/07 11:43:32;;;;;;;5.20;2.80;;;;;5.90;94011.00;;;;7388018;19;20585;-77
2023/12/07 11:46:10;;;;;;;3.77;2.80;;;;;5.30;94005.00;;;;7387702;19;20158;-75
2023/12/07 11:48:46;;;;;;;3.67;2.73;;;;;5.00;94004.00;;;;7388104;19;20139;-77
2023/12/07 11:51:20;;;;;;;3.00;2.70;;;;;4.70;94006.00;;;;7387719;19;20133;-76
2023/12/07 11:54:00;;;;;;;3.53;2.87;;;;;4.70;94000.00;;;;7387233;19;20157;-77
2023/12/07 11:56:39;;;;;;;5.23;3.50;;;;;5.20;93995.00;;;;7386351;19;20140;-75
2023/12/07 11:59:16;;;;;;;5.00;3.13;;;;;5.80;93981.00;;;;7388675;19;20149;-75
2023/12/07 12:02:02;;;;;;;3.83;3.37;;;;;7.00;93975.00;;;;7388200;19;20149;-74
2023/12/07 12:04:38;;;;;;;3.50;3.03;;;;;7.60;93963.00;;;;7390427;19;20161;-76
2023/12/07 12:07:12;;;;;;;4.33;3.33;;;;;8.00;93957.00;;;;7389089;19;20604;-75
2023/12/07 12:09:47;;;;;;;3.50;3.20;;;;;8.50;93951.00;;;;7387404;19;20136;-75
2023/12/07 12:12:22;;;;;;;4.43;3.38;;;;;8.70;93948.00;;;;7389599;19;20160;-76
2023/12/07 12:14:56;;;;;;;3.88;3.28;;;;;8.40;93944.00;;;;7386849;19;20602;-74
2023/12/07 12:17:34;;;;;;;3.88;2.97;;;;;6.60;93976.00;;;;7386750;19;20167;-74
2023/12/07 12:20:10;;;;;;;4.63;3.67;;;;;5.60;93966.00;;;;7388958;19;20196;-74
2023/12/07 12:22:38;;;;;;;5.27;3.50;;;;;4.90;93951.00;;;;7387921;19;20181;-74
2023/12/07 12:25:20;;;;;;;4.23;3.40;;;;;4.90;93948.00;;;;7387528;19;20172;-73
2023/12/07 12:28:01;;;;;;;4.67;3.50;;;;;4.90;93941.00;;;;7390564;19;20125;-76
2023/12/07 12:30:36;;;;;;;5.87;3.80;;;;;5.60;93937.00;;;;7388303;19;20165;-74
2023/12/07 12:33:05;;;;;;;7.97;4.17;;;;;5.90;93936.00;;;;7388044;19;20580;-75
2023/12/07 12:35:42;;;;;;;5.83;3.50;;;;;6.20;93931.00;;;;7387961;19;20143;-74
2023/12/07 12:38:19;;;;;;;4.80;3.20;;;;;6.20;93934.00;;;;7387128;19;20164;-75
2023/12/07 12:41:08;;;;;;;4.27;3.60;;;;;6.50;93929.00;;;;7387027;19;20121;-74
2023/12/07 12:43:44;;;;;;;4.97;3.77;;;;;6.10;93921.00;;;;7387318;19;20145;-75
2023/12/07 12:46:20;;;;;;;5.47;3.60;;;;;6.80;93915.00;;;;7384008;19;20140;-74
2023/12/07 12:48:59;;;;;;;6.03;3.67;;;;;7.20;93919.00;;;;7386084;19;20608;-74
2023/12/07 12:51:29;;;;;;;5.23;3.40;;;;;6.20;93916.00;;;;7386099;19;20510;-74
2023/12/07 12:54:03;;;;;;;5.15;3.17;;;;;6.70;93923.00;;;;7385806;19;20140;-73